Time;durP1;ratioP1;P1;durP2;ratioP2;P2;SDS_P1;SDS_P2;PMS_P1;PMS_P2;Temp;Humidity;BMP_temperature;BMP_pressure;BME280_temperature;BME280_humidity;BME280_pressure;Samples;Min_cycle;Max_cycle;Signal;HPM_P1;HPM_P2
2022/09/17 00:01:09;;;;;;;1.40;1.30;;;10.40;99.90;;;;;;5068835;28;20570;-86
2022/09/17 00:03:35;;;;;;;1.48;1.27;;;10.40;99.90;;;;;;5059377;28;20024;-86
2022/09/17 00:06:07;;;;;;;1.58;1.40;;;10.40;99.90;;;;;;5048528;28;20060;-86
2022/09/17 00:08:35;;;;;;;1.10;1.05;;;10.50;99.90;;;;;;5064680;28;20029;-85
2022/09/17 00:11:07;;;;;;;0.90;0.90;;;10.50;99.90;;;;;;5048783;28;20501;-86
2022/09/17 00:13:33;;;;;;;1.60;1.23;;;10.50;99.90;;;;;;5048562;28;20056;-86
2022/09/17 00:15:59;;;;;;;1.88;1.20;;;10.50;99.90;;;;;;5068732;28;20563;-85
2022/09/17 00:18:25;;;;;;;1.10;1.05;;;10.50;99.90;;;;;;5047278;28;20036;-85
2022/09/17 00:20:51;;;;;;;1.33;1.23;;;10.50;99.90;;;;;;5050111;28;20039;-85
2022/09/17 00:23:16;;;;;;;0.90;0.90;;;10.50;99.90;;;;;;5056854;28;20033;-86
2022/09/17 00:25:44;;;;;;;0.90;0.88;;;10.20;99.90;;;;;;5069455;28;20123;-86
2022/09/17 00:28:12;;;;;;;0.95;0.95;;;10.10;99.90;;;;;;5064958;28;20036;-86
2022/09/17 00:30:42;;;;;;;1.20;1.10;;;10.10;99.90;;;;;;5070316;28;20036;-85
2022/09/17 00:33:11;;;;;;;2.67;1.23;;;10.00;99.90;;;;;;5053771;28;20048;-86
2022/09/17 00:35:37;;;;;;;4.15;1.20;;;10.00;99.90;;;;;;5068105;28;20495;-85
2022/09/17 00:38:03;;;;;;;1.10;1.10;;;10.10;99.90;;;;;;5062324;28;20029;-85
2022/09/17 00:40:29;;;;;;;1.63;1.25;;;10.10;99.90;;;;;;5051093;28;20033;-85
2022/09/17 00:42:55;;;;;;;3.53;1.35;;;10.10;99.90;;;;;;5049960;28;20042;-85
2022/09/17 00:45:21;;;;;;;1.17;0.98;;;10.10;99.90;;;;;;5055160;28;20058;-86
2022/09/17 00:47:58;;;;;;;0.65;0.65;;;10.00;99.90;;;;;;5065134;28;20021;-86
2022/09/17 00:50:43;;;;;;;0.90;0.90;;;10.10;99.90;;;;;;5065122;28;20059;-86
2022/09/17 00:53:12;;;;;;;1.00;1.00;;;10.10;99.90;;;;;;5067153;28;20033;-85
2022/09/17 00:55:40;;;;;;;2.25;1.27;;;10.20;99.90;;;;;;5054886;28;20034;-86
2022/09/17 00:58:09;;;;;;;1.30;1.20;;;10.20;99.90;;;;;;5053060;28;20317;-86
2022/09/17 01:00:36;;;;;;;2.13;1.30;;;10.20;99.90;;;;;;5051836;28;20116;-86
2022/09/17 01:03:02;;;;;;;2.13;1.20;;;10.20;99.90;;;;;;5047593;28;20029;-85
2022/09/17 01:05:41;;;;;;;1.65;1.20;;;10.20;99.90;;;;;;5051252;28;20195;-86
2022/09/17 01:08:52;;;;;;;1.27;1.17;;;10.20;99.90;;;;;;5067629;28;20043;-86
2022/09/17 01:11:42;;;;;;;1.67;1.55;;;10.20;99.90;;;;;;5050769;28;20040;-85
2022/09/17 01:15:00;;;;;;;1.25;1.15;;;10.30;99.90;;;;;;5049874;28;20029;-86
2022/09/17 01:17:53;;;;;;;2.08;1.08;;;10.30;99.90;;;;;;5027743;28;20044;-86
2022/09/17 01:20:22;;;;;;;1.13;1.10;;;10.30;99.90;;;;;;5046094;28;20533;-85
2022/09/17 01:23:15;;;;;;;2.47;1.30;;;10.30;99.90;;;;;;5065887;28;20298;-85
2022/09/17 01:25:53;;;;;;;2.15;1.20;;;10.20;99.90;;;;;;5065737;28;20032;-85
2022/09/17 01:28:31;;;;;;;2.60;1.45;;;10.20;99.90;;;;;;5053256;28;20036;-86
2022/09/17 01:31:05;;;;;;;1.65;1.30;;;10.10;99.90;;;;;;5060957;28;20033;-85
2022/09/17 01:34:00;;;;;;;1.20;1.10;;;10.10;99.90;;;;;;5058288;28;20090;-86
2022/09/17 01:36:59;;;;;;;1.35;1.25;;;10.10;99.90;;;;;;5055045;28;20033;-85
2022/09/17 01:39:37;;;;;;;1.42;1.33;;;10.10;99.90;;;;;;5059838;28;20114;-86
2022/09/17 01:42:38;;;;;;;1.33;1.23;;;10.00;99.90;;;;;;5077362;28;20119;-85
2022/09/17 01:45:34;;;;;;;3.58;1.50;;;10.00;99.90;;;;;;5035519;28;20044;-86
2022/09/17 01:48:16;;;;;;;1.40;1.30;;;10.00;99.90;;;;;;5043375;28;20113;-86
2022/09/17 01:50:57;;;;;;;1.70;1.20;;;10.00;99.90;;;;;;5047867;28;20021;-85
2022/09/17 01:53:37;;;;;;;2.45;1.38;;;10.00;99.90;;;;;;5052526;28;20028;-85
2022/09/17 01:56:05;;;;;;;1.48;1.38;;;10.00;99.90;;;;;;5041399;28;20029;-85
2022/09/17 01:58:41;;;;;;;1.30;1.20;;;10.00;99.90;;;;;;5048600;28;20033;-85
2022/09/17 02:01:11;;;;;;;2.28;1.10;;;9.90;99.90;;;;;;5048257;28;20057;-86
2022/09/17 02:03:45;;;;;;;1.20;1.10;;;9.90;99.90;;;;;;5065529;28;20036;-86
2022/09/17 02:06:23;;;;;;;1.40;1.30;;;9.80;99.90;;;;;;5043882;28;20116;-86
2022/09/17 02:09:16;;;;;;;1.48;1.27;;;9.80;99.90;;;;;;5051410;28;20048;-85
2022/09/17 02:11:48;;;;;;;1.55;1.45;;;9.90;99.90;;;;;;5052470;28;20017;-85
2022/09/17 02:14:28;;;;;;;1.55;1.45;;;9.80;99.90;;;;;;5060344;28;20124;-86
2022/09/17 02:17:09;;;;;;;1.58;1.48;;;9.90;99.90;;;;;;5049037;28;20072;-85
2022/09/17 02:19:37;;;;;;;1.88;1.50;;;9.90;99.90;;;;;;5048681;28;20066;-85
2022/09/17 02:22:11;;;;;;;1.80;1.70;;;9.90;99.90;;;;;;5051536;28;20036;-86
2022/09/17 02:25:00;;;;;;;1.52;1.42;;;9.90;99.90;;;;;;5068286;28;20068;-86
2022/09/17 02:27:45;;;;;;;1.02;1.02;;;9.90;99.90;;;;;;5047569;28;20041;-85
2022/09/17 02:30:11;;;;;;;1.45;1.35;;;9.80;99.90;;;;;;5051484;28;20031;-85
2022/09/17 02:32:37;;;;;;;1.33;1.20;;;9.80;99.90;;;;;;5050416;28;20152;-86
2022/09/17 02:35:03;;;;;;;1.38;1.27;;;9.80;99.90;;;;;;5066427;28;20121;-86
2022/09/17 02:37:28;;;;;;;1.33;1.20;;;9.80;99.90;;;;;;5051882;28;20031;-86
2022/09/17 02:39:55;;;;;;;1.92;1.60;;;9.70;99.90;;;;;;5044380;28;20085;-85
2022/09/17 02:42:33;;;;;;;3.35;1.27;;;9.80;99.90;;;;;;5065524;28;20120;-86
2022/09/17 02:45:09;;;;;;;1.55;1.45;;;9.80;99.90;;;;;;5051020;28;20037;-86
2022/09/17 02:48:09;;;;;;;1.50;1.40;;;9.80;99.90;;;;;;5046778;28;20102;-86
2022/09/17 02:50:53;;;;;;;1.55;1.38;;;9.80;99.90;;;;;;5044023;28;20077;-85
2022/09/17 02:53:48;;;;;;;2.42;1.33;;;9.70;99.90;;;;;;5054606;28;20037;-86
2022/09/17 02:56:26;;;;;;;2.38;2.17;;;9.70;99.90;;;;;;5064080;28;20512;-86
2022/09/17 02:59:13;;;;;;;1.97;1.43;;;9.70;99.90;;;;;;5046646;28;20032;-85
2022/09/17 03:01:49;;;;;;;2.00;1.80;;;9.70;99.90;;;;;;5039207;28;20074;-85
2022/09/17 03:04:17;;;;;;;1.70;1.60;;;9.70;99.90;;;;;;5049674;28;20017;-86
2022/09/17 03:06:46;;;;;;;1.45;1.35;;;9.70;99.90;;;;;;5048556;28;20029;-85
2022/09/17 03:09:12;;;;;;;3.10;1.80;;;9.70;99.90;;;;;;5048500;28;20040;-86
2022/09/17 03:11:41;;;;;;;1.77;1.55;;;9.70;99.90;;;;;;5063449;28;20029;-86
2022/09/17 03:14:07;;;;;;;2.03;1.80;;;9.60;99.90;;;;;;5063343;28;20030;-86
2022/09/17 03:16:32;;;;;;;1.88;1.77;;;9.60;99.90;;;;;;5047961;28;20381;-86
2022/09/17 03:18:58;;;;;;;1.90;1.35;;;9.60;99.90;;;;;;5056160;28;20025;-85
2022/09/17 03:21:24;;;;;;;2.40;1.60;;;9.50;99.90;;;;;;5048114;28;20043;-86
2022/09/17 03:23:49;;;;;;;1.50;1.40;;;9.50;99.90;;;;;;5042580;28;20024;-85
2022/09/17 03:26:15;;;;;;;2.63;1.23;;;9.50;99.90;;;;;;5048545;28;20021;-85
2022/09/17 03:28:41;;;;;;;4.13;1.48;;;9.50;99.90;;;;;;5049416;28;20043;-85
2022/09/17 03:31:06;;;;;;;1.63;1.52;;;9.40;99.90;;;;;;5046071;28;20564;-85
2022/09/17 03:33:32;;;;;;;1.25;1.15;;;9.40;99.90;;;;;;5052126;28;20499;-85
2022/09/17 03:35:58;;;;;;;1.45;1.35;;;9.30;99.90;;;;;;5049824;28;20091;-86
2022/09/17 03:38:23;;;;;;;0.90;0.90;;;9.20;99.90;;;;;;5050763;28;20064;-85
2022/09/17 03:41:03;;;;;;;1.75;1.55;;;9.20;99.90;;;;;;5070552;28;20031;-86
2022/09/17 03:43:29;;;;;;;1.58;1.48;;;9.20;99.90;;;;;;5062654;28;20546;-85
2022/09/17 03:45:55;;;;;;;1.67;1.20;;;9.20;99.90;;;;;;5050762;28;20021;-85
2022/09/17 03:48:21;;;;;;;1.85;1.25;;;9.20;99.90;;;;;;5069984;28;20112;-85
2022/09/17 03:50:47;;;;;;;4.78;1.40;;;9.20;99.90;;;;;;5059527;28;20025;-86
2022/09/17 03:53:12;;;;;;;1.63;1.40;;;9.20;99.90;;;;;;5071956;28;20025;-86
2022/09/17 03:55:39;;;;;;;2.63;1.48;;;9.30;99.90;;;;;;5050383;28;20033;-86
2022/09/17 03:58:04;;;;;;;3.22;1.42;;;9.20;99.90;;;;;;5070847;28;20358;-86
2022/09/17 04:00:30;;;;;;;1.40;1.30;;;9.20;99.90;;;;;;5052109;28;20033;-86
2022/09/17 04:02:56;;;;;;;3.75;1.50;;;9.20;99.90;;;;;;5066312;28;20029;-85
2022/09/17 04:05:22;;;;;;;1.83;1.73;;;9.20;99.90;;;;;;5064883;28;20040;-85
2022/09/17 04:07:48;;;;;;;1.30;1.30;;;9.20;99.90;;;;;;5069855;28;20025;-85
2022/09/17 04:10:13;;;;;;;2.78;1.40;;;9.20;99.90;;;;;;5051978;28;20041;-86
2022/09/17 04:12:39;;;;;;;2.83;1.50;;;9.20;99.90;;;;;;5052337;28;20032;-85
2022/09/17 04:15:05;;;;;;;2.65;1.77;;;9.20;99.90;;;;;;5052830;28;20052;-85
2022/09/17 04:17:31;;;;;;;1.20;1.20;;;9.20;99.90;;;;;;5052700;28;20021;-85
2022/09/17 04:19:57;;;;;;;1.83;1.58;;;9.20;99.90;;;;;;5069507;28;20056;-85
2022/09/17 04:22:23;;;;;;;1.60;1.50;;;9.20;99.90;;;;;;5056615;28;20056;-86
2022/09/17 04:24:49;;;;;;;1.20;1.20;;;9.20;99.90;;;;;;5058909;28;20701;-85
2022/09/17 04:27:14;;;;;;;1.23;1.23;;;9.10;99.90;;;;;;5069763;28;20067;-86
2022/09/17 04:29:40;;;;;;;1.20;1.10;;;9.10;99.90;;;;;;5053845;28;20031;-85
2022/09/17 04:32:06;;;;;;;2.80;1.70;;;9.00;99.90;;;;;;5051090;28;20057;-86
2022/09/17 04:34:32;;;;;;;1.95;1.50;;;8.90;99.90;;;;;;5054113;28;20623;-86
2022/09/17 04:36:58;;;;;;;1.38;1.20;;;8.90;99.90;;;;;;5052359;28;20110;-85
2022/09/17 04:39:23;;;;;;;1.55;1.45;;;8.90;99.90;;;;;;5053354;28;20032;-86
2022/09/17 04:41:49;;;;;;;1.15;1.15;;;8.90;99.90;;;;;;5066809;28;20044;-85
2022/09/17 04:44:14;;;;;;;0.73;0.73;;;8.80;99.90;;;;;;5070583;28;20032;-85
2022/09/17 04:46:40;;;;;;;1.60;1.50;;;8.80;99.90;;;;;;5060746;28;20036;-85
2022/09/17 04:49:07;;;;;;;5.03;1.40;;;8.80;99.90;;;;;;5052716;28;20036;-85
2022/09/17 04:51:33;;;;;;;2.58;1.33;;;8.80;99.90;;;;;;5044862;28;20026;-86
2022/09/17 04:53:58;;;;;;;1.23;1.05;;;8.80;99.90;;;;;;5051830;28;20063;-85
2022/09/17 04:56:24;;;;;;;2.42;1.60;;;8.80;99.90;;;;;;5068044;28;20041;-86
2022/09/17 04:58:49;;;;;;;2.97;1.50;;;8.90;99.90;;;;;;5049832;28;20051;-86
2022/09/17 05:01:17;;;;;;;1.67;1.48;;;8.90;99.90;;;;;;5057738;28;20037;-86
2022/09/17 05:03:43;;;;;;;1.03;1.03;;;8.90;99.90;;;;;;5066031;28;20025;-86
2022/09/17 05:06:09;;;;;;;1.38;1.30;;;8.90;99.90;;;;;;5046471;28;20064;-86
2022/09/17 05:08:35;;;;;;;1.40;1.30;;;8.90;99.90;;;;;;5054344;28;20242;-86
2022/09/17 05:11:01;;;;;;;1.42;1.33;;;8.90;99.90;;;;;;5052027;28;20093;-85
2022/09/17 05:13:27;;;;;;;0.98;0.88;;;8.90;99.90;;;;;;5065999;28;20055;-86
2022/09/17 05:15:55;;;;;;;1.27;1.20;;;8.90;99.90;;;;;;5051033;28;20036;-86
2022/09/17 05:18:21;;;;;;;1.52;1.30;;;8.90;99.90;;;;;;5054379;28;20036;-85
2022/09/17 05:20:47;;;;;;;3.25;1.30;;;9.00;99.90;;;;;;5048820;28;20434;-85
2022/09/17 05:23:12;;;;;;;2.63;1.55;;;9.00;99.90;;;;;;5042424;28;20072;-85
2022/09/17 05:25:38;;;;;;;1.95;1.08;;;9.00;99.90;;;;;;5052725;28;20503;-86
2022/09/17 05:28:04;;;;;;;0.95;0.95;;;9.00;99.90;;;;;;5069456;28;20108;-85
2022/09/17 05:30:30;;;;;;;2.33;0.75;;;9.00;99.90;;;;;;5066691;28;20025;-85
2022/09/17 05:33:00;;;;;;;1.80;1.40;;;9.00;99.90;;;;;;5048198;28;20036;-85
2022/09/17 05:35:26;;;;;;;1.85;1.30;;;9.00;99.90;;;;;;5055267;28;20033;-85
2022/09/17 05:37:56;;;;;;;4.45;1.35;;;9.00;99.90;;;;;;5051238;28;20096;-85
2022/09/17 05:40:22;;;;;;;3.00;1.58;;;9.00;99.90;;;;;;5049947;28;20030;-85
2022/09/17 05:42:47;;;;;;;1.63;1.40;;;8.90;99.90;;;;;;5049307;28;20044;-85
2022/09/17 05:45:13;;;;;;;0.75;0.75;;;8.90;99.90;;;;;;5051624;28;20025;-85
2022/09/17 05:47:39;;;;;;;2.00;1.70;;;8.90;99.90;;;;;;5046949;28;20028;-85
2022/09/17 05:50:05;;;;;;;2.50;1.40;;;8.90;99.90;;;;;;5065888;28;20107;-85
2022/09/17 05:52:30;;;;;;;2.95;1.65;;;9.00;99.90;;;;;;5037924;28;20025;-85
2022/09/17 05:54:56;;;;;;;4.07;1.27;;;9.00;99.90;;;;;;5049287;28;20089;-85
2022/09/17 05:57:22;;;;;;;3.78;1.80;;;9.00;99.90;;;;;;5053212;28;20021;-85
2022/09/17 05:59:48;;;;;;;3.63;1.40;;;9.10;99.90;;;;;;5054427;28;20027;-85
2022/09/17 06:02:13;;;;;;;4.68;2.03;;;9.10;99.90;;;;;;5048288;28;20124;-85
2022/09/17 06:04:39;;;;;;;1.08;1.08;;;9.10;99.90;;;;;;5049881;28;20480;-85
2022/09/17 06:07:09;;;;;;;2.28;1.40;;;9.10;99.90;;;;;;5053700;28;20056;-84
2022/09/17 06:09:36;;;;;;;1.48;1.00;;;9.10;99.90;;;;;;5066515;28;20041;-85
2022/09/17 06:12:03;;;;;;;2.63;1.90;;;9.20;99.90;;;;;;5050442;28;20028;-85
2022/09/17 06:14:29;;;;;;;1.90;1.65;;;9.20;99.90;;;;;;5053832;28;20017;-85
2022/09/17 06:16:56;;;;;;;2.45;1.90;;;9.20;99.90;;;;;;5055724;28;20024;-85
2022/09/17 06:19:21;;;;;;;4.68;1.83;;;9.20;99.90;;;;;;5070889;28;20045;-85
2022/09/17 06:21:49;;;;;;;5.10;1.38;;;9.30;99.90;;;;;;5065304;28;20187;-85
2022/09/17 06:24:15;;;;;;;2.33;1.50;;;9.30;99.90;;;;;;5066940;28;20078;-84
2022/09/17 06:26:41;;;;;;;2.13;1.50;;;9.30;99.90;;;;;;5043866;28;20032;-85
2022/09/17 06:29:06;;;;;;;6.88;3.45;;;9.40;99.90;;;;;;5051469;28;20100;-84
2022/09/17 06:31:32;;;;;;;1.70;1.30;;;9.30;99.90;;;;;;5049386;28;20029;-84
2022/09/17 06:33:58;;;;;;;3.08;1.42;;;9.40;99.90;;;;;;5048151;28;20036;-84
2022/09/17 06:36:23;;;;;;;2.15;1.40;;;9.30;99.90;;;;;;5050921;28;20047;-84
2022/09/17 06:38:49;;;;;;;4.38;1.60;;;9.30;99.90;;;;;;5059548;28;20049;-83
2022/09/17 06:41:15;;;;;;;4.22;1.55;;;9.30;99.90;;;;;;5051489;28;20773;-84
2022/09/17 06:43:41;;;;;;;4.50;2.15;;;9.40;99.90;;;;;;5047596;28;20120;-84
2022/09/17 06:46:09;;;;;;;1.08;1.00;;;9.40;99.90;;;;;;5065568;28;20112;-84
2022/09/17 06:48:36;;;;;;;2.55;1.27;;;9.40;99.90;;;;;;5053533;28;20032;-84
2022/09/17 06:51:04;;;;;;;1.40;1.30;;;9.40;99.90;;;;;;5049565;28;20051;-84
2022/09/17 06:53:30;;;;;;;1.40;1.15;;;9.50;99.90;;;;;;5052126;28;20033;-85
2022/09/17 06:55:57;;;;;;;0.90;0.90;;;9.50;99.90;;;;;;5060433;28;20067;-84
2022/09/17 06:58:23;;;;;;;2.40;1.17;;;9.60;99.90;;;;;;5046719;28;20089;-85
2022/09/17 07:00:49;;;;;;;3.20;1.13;;;9.50;99.90;;;;;;5045946;28;20041;-84
2022/09/17 07:03:15;;;;;;;3.08;0.82;;;9.50;99.90;;;;;;5061217;28;20035;-84
2022/09/17 07:05:43;;;;;;;2.03;1.50;;;9.50;99.90;;;;;;5061925;28;20335;-84
2022/09/17 07:08:09;;;;;;;3.40;1.20;;;9.60;99.90;;;;;;5048033;28;20889;-85
2022/09/17 07:10:36;;;;;;;4.45;1.27;;;9.60;99.90;;;;;;5062262;28;20064;-84
2022/09/17 07:13:02;;;;;;;5.78;1.92;;;9.60;99.90;;;;;;5062551;28;21372;-84
2022/09/17 07:15:28;;;;;;;0.93;0.93;;;9.70;99.90;;;;;;5067231;28;20106;-84
2022/09/17 07:17:54;;;;;;;4.43;1.13;;;9.80;99.90;;;;;;5066327;28;20362;-84
2022/09/17 07:20:20;;;;;;;3.55;1.60;;;9.90;99.90;;;;;;5048630;28;20025;-84
2022/09/17 07:22:55;;;;;;;3.65;1.10;;;10.00;99.90;;;;;;5049676;28;20035;-84
2022/09/17 07:25:20;;;;;;;5.50;1.30;;;9.90;99.90;;;;;;5049136;28;20029;-84
2022/09/17 07:27:46;;;;;;;4.13;1.45;;;9.80;99.90;;;;;;5051171;28;20031;-84
2022/09/17 07:30:12;;;;;;;1.77;1.67;;;9.70;99.90;;;;;;5050208;28;20021;-84
2022/09/17 07:32:38;;;;;;;1.48;1.08;;;9.60;99.90;;;;;;5049387;28;20044;-84
2022/09/17 07:35:04;;;;;;;1.67;1.10;;;9.70;99.90;;;;;;5047843;28;20469;-84
2022/09/17 07:37:29;;;;;;;2.42;1.52;;;9.70;99.90;;;;;;5049808;28;20111;-84
2022/09/17 07:39:55;;;;;;;3.00;1.60;;;9.80;99.90;;;;;;5048773;28;20131;-84
2022/09/17 07:42:20;;;;;;;2.25;1.70;;;9.90;99.90;;;;;;5065362;28;20032;-84
2022/09/17 07:44:46;;;;;;;1.27;1.05;;;9.90;99.90;;;;;;5049008;28;20032;-84
2022/09/17 07:47:12;;;;;;;3.22;1.15;;;10.00;99.90;;;;;;5048522;28;20043;-84
2022/09/17 07:49:39;;;;;;;3.25;1.40;;;9.90;99.90;;;;;;5049797;28;20362;-83
2022/09/17 07:52:05;;;;;;;2.05;1.42;;;9.90;99.90;;;;;;5051371;28;20732;-84
2022/09/17 07:54:36;;;;;;;2.47;1.45;;;9.70;99.90;;;;;;5049249;28;20027;-84
2022/09/17 07:57:02;;;;;;;3.35;1.20;;;9.70;99.90;;;;;;5047922;28;20107;-84
2022/09/17 07:59:27;;;;;;;1.63;1.08;;;9.80;99.90;;;;;;5046680;28;20027;-84
2022/09/17 08:01:53;;;;;;;4.68;1.83;;;9.80;99.90;;;;;;5049923;28;20044;-84
2022/09/17 08:04:19;;;;;;;3.90;1.38;;;9.80;99.90;;;;;;5051701;28;20108;-84
2022/09/17 08:06:47;;;;;;;2.15;1.80;;;9.80;99.90;;;;;;5049075;28;20116;-85
2022/09/17 08:09:14;;;;;;;8.07;1.47;;;9.90;99.90;;;;;;5064120;28;20489;-84
2022/09/17 08:11:42;;;;;;;1.30;1.20;;;9.90;99.90;;;;;;5062853;28;20064;-85
2022/09/17 08:14:11;;;;;;;2.88;1.30;;;9.90;99.90;;;;;;5050890;28;20075;-84
2022/09/17 08:16:37;;;;;;;1.92;1.38;;;9.90;99.90;;;;;;5066634;28;21997;-85
2022/09/17 08:19:03;;;;;;;4.97;1.77;;;9.90;99.90;;;;;;5048828;28;20036;-84
2022/09/17 08:21:28;;;;;;;5.57;1.38;;;10.00;99.90;;;;;;5064197;28;20039;-85
2022/09/17 08:23:54;;;;;;;5.72;1.65;;;10.10;99.90;;;;;;5047010;28;20049;-84
2022/09/17 08:26:21;;;;;;;1.27;0.93;;;10.30;99.90;;;;;;5045946;28;20056;-85
2022/09/17 08:28:53;;;;;;;2.70;1.55;;;10.30;99.90;;;;;;5064440;28;20108;-85
2022/09/17 08:31:20;;;;;;;4.60;1.92;;;10.30;99.90;;;;;;5046304;28;20200;-85
2022/09/17 08:33:46;;;;;;;9.93;2.42;;;10.40;99.90;;;;;;5047589;28;20450;-84
2022/09/17 08:36:14;;;;;;;2.40;1.25;;;10.70;99.90;;;;;;5044736;28;20115;-83
2022/09/17 08:38:40;;;;;;;2.60;1.73;;;11.00;99.90;;;;;;5044803;28;20035;-84
2022/09/17 08:41:11;;;;;;;6.53;1.83;;;10.90;99.90;;;;;;5063300;28;20093;-84
2022/09/17 08:44:15;;;;;;;3.53;1.38;;;10.90;99.90;;;;;;5065519;28;20025;-83
2022/09/17 08:46:51;;;;;;;3.67;1.20;;;10.70;99.90;;;;;;5040618;28;20167;-84
2022/09/17 08:49:47;;;;;;;1.38;1.25;;;10.80;99.90;;;;;;5048475;28;21700;-84
2022/09/17 08:52:50;;;;;;;1.83;1.10;;;10.70;99.90;;;;;;5052110;28;20025;-84
2022/09/17 08:55:30;;;;;;;2.58;1.52;;;10.70;99.90;;;;;;5051544;28;20061;-85
2022/09/17 08:58:01;;;;;;;3.25;1.45;;;10.60;99.90;;;;;;5047922;28;20037;-84
2022/09/17 09:00:50;;;;;;;5.53;1.48;;;10.50;99.90;;;;;;5067440;28;20025;-85
2022/09/17 09:03:38;;;;;;;1.58;1.25;;;10.50;99.90;;;;;;5051453;28;20075;-85
2022/09/17 09:06:04;;;;;;;10.00;2.45;;;10.40;99.90;;;;;;5047387;28;20021;-85
2022/09/17 09:08:52;;;;;;;2.95;1.20;;;10.40;99.90;;;;;;5053162;28;20089;-84
2022/09/17 09:11:27;;;;;;;2.20;1.40;;;10.40;99.90;;;;;;5049307;28;20079;-84
2022/09/17 09:14:05;;;;;;;5.28;1.40;;;10.40;99.90;;;;;;5064630;28;20042;-83
2022/09/17 09:16:37;;;;;;;1.00;1.00;;;10.50;99.90;;;;;;5052278;28;20115;-84
2022/09/17 09:19:18;;;;;;;6.40;1.77;;;10.40;99.90;;;;;;5039555;28;20120;-84
2022/09/17 09:21:49;;;;;;;4.68;1.60;;;10.40;99.90;;;;;;5065006;28;20044;-84
2022/09/17 09:24:27;;;;;;;3.28;1.90;;;10.50;99.90;;;;;;5051873;28;20420;-84
2022/09/17 09:27:19;;;;;;;2.38;1.33;;;10.50;99.90;;;;;;5045125;28;20029;-84
2022/09/17 09:30:24;;;;;;;4.53;1.50;;;10.60;99.90;;;;;;5045325;28;20111;-84
2022/09/17 09:33:11;;;;;;;4.43;1.50;;;10.50;99.90;;;;;;5042609;28;20041;-84
2022/09/17 09:35:41;;;;;;;4.53;1.50;;;10.30;99.90;;;;;;5065782;28;20036;-84
2022/09/17 09:38:33;;;;;;;4.97;1.55;;;10.30;99.90;;;;;;5064668;28;20025;-84
2022/09/17 09:41:01;;;;;;;2.75;1.30;;;10.30;99.90;;;;;;5051185;28;20147;-84
2022/09/17 09:43:47;;;;;;;4.35;1.25;;;9.90;99.90;;;;;;5065489;28;20131;-84
2022/09/17 09:46:52;;;;;;;3.28;1.42;;;9.80;99.90;;;;;;5066265;28;20025;-84
2022/09/17 09:49:55;;;;;;;2.17;1.40;;;9.70;99.90;;;;;;4970735;28;20033;-86
2022/09/17 09:52:33;;;;;;;3.33;1.52;;;9.60;99.90;;;;;;5064710;28;20040;-85
2022/09/17 09:55:01;;;;;;;2.67;1.48;;;9.60;99.90;;;;;;5048241;28;20040;-84
2022/09/17 09:57:47;;;;;;;;;;;9.70;99.90;;;;;;5064343;28;20052;-85
2022/09/17 10:00:39;;;;;;;1.60;1.50;;;9.60;99.90;;;;;;5048707;28;20357;-85
2022/09/17 10:03:20;;;;;;;3.60;1.23;;;9.80;99.90;;;;;;5050375;28;20060;-84
2022/09/17 10:06:01;;;;;;;3.40;1.63;;;9.90;99.90;;;;;;5042558;28;20041;-85
2022/09/17 10:08:32;;;;;;;1.48;1.38;;;10.20;99.90;;;;;;5044061;28;20024;-85
2022/09/17 10:11:04;;;;;;;1.48;1.38;;;10.20;99.90;;;;;;5044254;28;20060;-85
2022/09/17 10:13:32;;;;;;;2.30;0.90;;;10.40;99.90;;;;;;5043806;28;20493;-84
2022/09/17 10:16:17;;;;;;;2.45;0.88;;;10.30;99.90;;;;;;5042534;28;20033;-85
2022/09/17 10:18:44;;;;;;;1.27;0.60;;;10.20;99.90;;;;;;5060186;28;20091;-84
2022/09/17 10:21:29;;;;;;;1.08;1.00;;;10.00;99.90;;;;;;5043465;28;20056;-84
2022/09/17 10:23:56;;;;;;;0.80;0.80;;;9.90;99.90;;;;;;5041444;28;20040;-85
2022/09/17 10:26:28;;;;;;;1.10;1.10;;;9.80;99.90;;;;;;5038278;28;20033;-84
2022/09/17 10:29:01;;;;;;;1.88;0.90;;;9.90;99.90;;;;;;5057921;28;20094;-84
2022/09/17 10:31:27;;;;;;;1.13;1.13;;;9.90;99.90;;;;;;5057744;28;20040;-85
2022/09/17 10:34:02;;;;;;;0.95;0.90;;;10.00;99.90;;;;;;5058503;28;21025;-85
2022/09/17 10:36:46;;;;;;;3.10;1.02;;;10.10;99.90;;;;;;5040346;28;20029;-84
2022/09/17 10:39:27;;;;;;;0.75;0.75;;;10.30;99.90;;;;;;5038066;28;20028;-84
2022/09/17 10:42:10;;;;;;;2.88;1.27;;;10.40;99.90;;;;;;5037976;28;20033;-83
2022/09/17 10:44:37;;;;;;;2.03;1.00;;;10.60;99.90;;;;;;5053176;28;20079;-85
2022/09/17 10:47:18;;;;;;;1.13;1.02;;;10.80;99.90;;;;;;5039888;28;22133;-85
2022/09/17 10:50:02;;;;;;;1.42;1.30;;;10.90;99.90;;;;;;5047689;28;20032;-85
2022/09/17 10:52:34;;;;;;;3.45;1.15;;;10.60;99.90;;;;;;5062756;28;20036;-85
2022/09/17 10:55:30;;;;;;;2.90;1.55;;;10.60;99.90;;;;;;5046812;28;20611;-85
2022/09/17 10:58:10;;;;;;;0.70;0.70;;;10.40;99.90;;;;;;5065090;28;20454;-85
2022/09/17 11:00:48;;;;;;;3.22;1.08;;;10.30;99.90;;;;;;5050912;28;20068;-84
2022/09/17 11:03:51;;;;;;;1.55;1.30;;;10.50;99.90;;;;;;5050638;28;20041;-85
2022/09/17 11:06:27;;;;;;;2.42;1.00;;;10.50;99.90;;;;;;5041317;28;20027;-85
2022/09/17 11:08:58;;;;;;;4.80;1.63;;;10.50;99.90;;;;;;5045991;28;20021;-85
2022/09/17 11:11:48;;;;;;;1.70;1.10;;;10.50;99.90;;;;;;5047982;28;20040;-84
2022/09/17 11:14:34;;;;;;;0.90;0.90;;;10.40;99.90;;;;;;5056683;28;20425;-85
2022/09/17 11:17:35;;;;;;;0.88;0.85;;;10.30;99.90;;;;;;5066589;28;20021;-85
2022/09/17 11:20:29;;;;;;;2.53;1.30;;;10.30;99.90;;;;;;5065324;28;20041;-85
2022/09/17 11:23:20;;;;;;;3.78;1.23;;;10.40;99.90;;;;;;5050392;28;20032;-85
2022/09/17 11:25:52;;;;;;;2.15;1.00;;;10.50;99.90;;;;;;5061056;28;20029;-85
2022/09/17 11:28:23;;;;;;;0.77;0.77;;;10.40;99.90;;;;;;5047530;28;20025;-85
2022/09/17 11:31:20;;;;;;;1.35;0.98;;;10.30;99.90;;;;;;5061722;28;20037;-85
2022/09/17 11:34:13;;;;;;;1.13;1.13;;;10.40;99.90;;;;;;5053950;28;20033;-85
2022/09/17 11:36:48;;;;;;;2.25;1.65;;;10.70;99.90;;;;;;5061365;28;20036;-85
2022/09/17 11:39:21;;;;;;;1.50;1.40;;;11.00;99.90;;;;;;5066628;28;20478;-85
2022/09/17 11:41:50;;;;;;;7.13;1.60;;;11.00;99.90;;;;;;5061647;28;20037;-85
2022/09/17 11:44:19;;;;;;;5.53;1.92;;;10.90;99.90;;;;;;5045775;28;20063;-85
2022/09/17 11:47:09;;;;;;;2.88;1.27;;;10.90;99.90;;;;;;5060276;28;20048;-85
2022/09/17 11:49:43;;;;;;;1.40;1.30;;;11.10;99.90;;;;;;5045644;28;20129;-85
2022/09/17 11:52:18;;;;;;;0.85;0.85;;;11.20;99.90;;;;;;5049597;28;20033;-85
2022/09/17 11:54:48;;;;;;;2.45;1.52;;;11.20;99.90;;;;;;5048607;28;20020;-85
2022/09/17 11:57:44;;;;;;;3.50;0.80;;;11.10;99.90;;;;;;5065246;28;20043;-85
2022/09/17 12:00:22;;;;;;;1.38;1.20;;;11.10;99.90;;;;;;5053453;28;20044;-85
2022/09/17 12:03:22;;;;;;;1.35;1.05;;;11.40;99.90;;;;;;5061455;28;20033;-85
2022/09/17 12:06:02;;;;;;;2.03;1.40;;;11.60;99.90;;;;;;5040632;28;20414;-85
2022/09/17 12:08:46;;;;;;;3.60;1.15;;;11.80;99.90;;;;;;5062911;28;20021;-85
2022/09/17 12:11:18;;;;;;;1.77;1.42;;;12.00;99.90;;;;;;5039957;28;20119;-85
2022/09/17 12:14:11;;;;;;;7.10;1.33;;;11.90;99.90;;;;;;5044339;28;20025;-85
2022/09/17 12:16:42;;;;;;;1.55;1.38;;;11.70;99.90;;;;;;5043009;28;20029;-85
2022/09/17 12:19:30;;;;;;;1.17;1.08;;;11.50;99.90;;;;;;5041058;28;20055;-86
2022/09/17 12:22:03;;;;;;;2.28;1.30;;;11.50;99.90;;;;;;5045497;28;20029;-86
2022/09/17 12:24:30;;;;;;;2.25;1.52;;;11.50;99.90;;;;;;5045649;28;20032;-85
2022/09/17 12:27:10;;;;;;;2.30;1.40;;;11.40;99.90;;;;;;5044856;28;20044;-86
2022/09/17 12:29:48;;;;;;;1.63;1.02;;;11.30;99.90;;;;;;5046073;28;20352;-86
2022/09/17 12:32:26;;;;;;;2.25;0.93;;;11.10;99.90;;;;;;5046368;28;20029;-85
2022/09/17 12:35:30;;;;;;;3.53;0.90;;;10.80;99.90;;;;;;5062131;28;20024;-86
2022/09/17 12:38:10;;;;;;;0.80;0.80;;;10.80;99.90;;;;;;5046143;28;20117;-86
2022/09/17 12:41:07;;;;;;;0.98;0.90;;;10.50;99.90;;;;;;5047664;28;20122;-86
2022/09/17 12:43:41;;;;;;;0.70;0.70;;;10.50;99.90;;;;;;5062004;28;20093;-87
2022/09/17 12:46:31;;;;;;;1.95;0.85;;;10.60;99.90;;;;;;5059295;28;20513;-85
2022/09/17 12:49:29;;;;;;;0.68;0.68;;;10.70;99.90;;;;;;5056300;28;20426;-86
2022/09/17 12:52:06;;;;;;;1.55;0.93;;;11.00;99.90;;;;;;5046025;28;20029;-86
2022/09/17 12:54:47;;;;;;;1.67;0.70;;;11.20;99.90;;;;;;5063693;28;20041;-86
2022/09/17 12:57:19;;;;;;;2.78;0.90;;;11.30;99.90;;;;;;5064263;28;20489;-85
2022/09/17 13:00:23;;;;;;;1.17;0.95;;;11.30;99.90;;;;;;5046886;28;20039;-85
2022/09/17 13:03:44;;;;;;;3.70;1.13;;;11.40;99.90;;;;;;5060353;28;20067;-85
2022/09/17 13:06:42;;;;;;;1.90;0.95;;;11.60;99.90;;;;;;5034065;28;20045;-86
2022/09/17 13:09:41;;;;;;;3.83;1.27;;;11.90;99.90;;;;;;5043073;28;20112;-86
2022/09/17 13:12:13;;;;;;;2.80;1.30;;;12.10;99.90;;;;;;5045542;28;20024;-86
2022/09/17 13:15:18;;;;;;;0.80;0.77;;;12.30;99.90;;;;;;5059937;28;20032;-85
2022/09/17 13:18:16;;;;;;;3.03;1.23;;;12.40;99.90;;;;;;5046913;28;20102;-86
2022/09/17 13:21:12;;;;;;;1.15;1.05;;;12.60;99.90;;;;;;5025723;28;20036;-85
2022/09/17 13:23:44;;;;;;;0.88;0.88;;;12.70;99.90;;;;;;5040612;28;20025;-86
2022/09/17 13:26:15;;;;;;;2.67;1.17;;;12.60;99.90;;;;;;5046994;28;20558;-86
2022/09/17 13:28:44;;;;;;;1.10;0.80;;;12.30;98.30;;;;;;5062824;28;20025;-85